createdAt,value
2023-02-12T00:04:41.243Z,5.20
2023-02-12T00:09:44.140Z,5.50
2023-02-12T00:14:46.120Z,2.50
2023-02-12T00:19:48.626Z,2.30
2023-02-12T00:24:50.400Z,5.60
2023-02-12T00:29:52.308Z,3.30
2023-02-12T00:34:54.143Z,18.90
2023-02-12T00:39:55.921Z,2.90
2023-02-12T00:44:57.688Z,5.30
2023-02-12T00:49:59.667Z,7.00
2023-02-12T00:55:01.443Z,19.20
2023-02-12T01:00:05.370Z,6.00
2023-02-12T01:05:08.622Z,2.10
2023-02-12T01:10:10.769Z,3.40
2023-02-12T01:15:13.966Z,11.00
2023-02-12T01:20:18.294Z,5.30
2023-02-12T01:25:21.005Z,7.50
2023-02-12T01:30:23.806Z,7.40
2023-02-12T01:35:28.446Z,5.10
2023-02-12T01:40:30.103Z,6.80
2023-02-12T01:45:47.094Z,7.60
2023-02-12T01:50:52.531Z,3.80
2023-02-12T01:55:59.380Z,3.10
2023-02-12T02:01:05.699Z,2.10
2023-02-12T02:06:15.965Z,2.40
2023-02-12T02:11:36.375Z,9.30
2023-02-12T02:16:46.645Z,2.70
2023-02-12T02:22:07.466Z,5.00
2023-02-12T02:27:55.526Z,2.00
2023-02-12T02:33:03.764Z,3.80
2023-02-12T02:38:29.589Z,4.70
2023-02-12T02:43:52.461Z,5.40
2023-02-12T02:49:02.603Z,4.40
2023-02-12T02:54:46.402Z,4.10
2023-02-12T02:59:58.206Z,3.00
2023-02-12T03:05:13.020Z,2.60
2023-02-12T03:10:31.246Z,5.30
2023-02-12T03:15:45.655Z,9.70
2023-02-12T03:20:54.939Z,4.40
2023-02-12T03:26:09.231Z,5.60
2023-02-12T03:31:28.964Z,4.70
2023-02-12T03:36:39.723Z,2.70
2023-02-12T03:41:54.538Z,8.20
2023-02-12T03:47:20.031Z,5.20
2023-02-12T03:52:22.423Z,14.40
2023-02-12T03:57:33.718Z,34.30
2023-02-12T04:02:36.417Z,12.00
2023-02-12T04:07:38.232Z,5.90
2023-02-12T04:12:56.652Z,6.60
2023-02-12T04:18:41.968Z,5.10
2023-02-12T04:23:57.849Z,5.30
2023-02-12T04:29:50.215Z,4.10
2023-02-12T04:34:59.671Z,5.40
2023-02-12T04:40:07.872Z,1.60
2023-02-12T04:45:16.761Z,2.70
2023-02-12T04:50:19.365Z,2.90
2023-02-12T04:55:21.013Z,2.40
2023-02-12T05:00:23.100Z,4.90
2023-02-12T05:05:25.399Z,5.60
2023-02-12T05:10:27.471Z,10.30
2023-02-12T05:15:29.335Z,167.80
2023-02-12T05:20:31.229Z,103.30
2023-02-12T05:25:32.991Z,71.70
2023-02-12T05:30:34.667Z,15.40
2023-02-12T05:35:36.539Z,35.90
2023-02-12T05:40:39.954Z,62.30
2023-02-12T05:45:44.489Z,39.80
2023-02-12T05:50:46.165Z,40.10
2023-02-12T05:55:47.834Z,37.20
2023-02-12T06:00:49.611Z,34.40
2023-02-12T06:05:52.007Z,24.60
2023-02-12T06:10:53.709Z,15.50
2023-02-12T06:15:55.906Z,15.40
2023-02-12T06:20:57.959Z,13.20
2023-02-12T06:26:01.796Z,19.40
2023-02-12T06:31:04.523Z,15.50
2023-02-12T06:36:06.758Z,21.40
2023-02-12T06:41:09.256Z,22.70
2023-02-12T06:46:12.281Z,27.20
2023-02-12T06:51:17.761Z,28.50
2023-02-12T06:56:21.594Z,35.80
2023-02-12T07:01:27.607Z,68.80
2023-02-12T07:06:32.869Z,73.70
2023-02-12T07:11:38.067Z,68.20
2023-02-12T07:16:40.113Z,44.80
2023-02-12T07:21:42.386Z,42.90
2023-02-12T07:26:44.682Z,24.90
2023-02-12T07:31:46.578Z,23.40
2023-02-12T07:36:48.334Z,23.90
2023-02-12T07:41:50.313Z,25.70
2023-02-12T07:46:52.018Z,17.40
2023-02-12T07:51:56.417Z,23.60
2023-02-12T07:56:58.206Z,31.10
2023-02-12T08:02:00.529Z,24.50
2023-02-12T08:07:03.185Z,16.00
2023-02-12T08:12:05.283Z,12.70
2023-02-12T08:27:05.463Z,16.00
2023-02-12T08:32:10.890Z,19.80
2023-02-12T08:37:15.060Z,18.20
2023-02-12T08:42:18.185Z,9.10
2023-02-12T08:47:22.716Z,8.60
2023-02-12T08:52:25.914Z,7.20
2023-02-12T08:57:29.133Z,8.50
2023-02-12T09:02:33.489Z,10.20
2023-02-12T09:07:36.858Z,8.70
2023-02-12T09:12:40.071Z,9.90
2023-02-12T09:17:43.996Z,8.70
2023-02-12T09:22:47.040Z,29.30
2023-02-12T09:27:50.108Z,7.90
2023-02-12T09:32:53.314Z,9.90
2023-02-12T09:37:56.736Z,6.80
2023-02-12T09:43:11.313Z,8.70
2023-02-12T09:48:36.237Z,8.20
2023-02-12T09:54:00.529Z,5.50
2023-02-12T09:59:08.311Z,6.80
2023-02-12T10:04:13.072Z,7.50
2023-02-12T10:09:57.873Z,9.70
2023-02-12T10:15:24.435Z,5.60
2023-02-12T10:21:03.303Z,3.60
2023-02-12T10:26:57.902Z,6.80
2023-02-12T10:32:07.347Z,14.20
2023-02-12T10:37:40.660Z,4.30
2023-02-12T10:42:48.368Z,5.40
2023-02-12T10:48:05.102Z,6.10
2023-02-12T10:53:22.637Z,6.40
2023-02-12T10:58:25.961Z,5.50
2023-02-12T11:03:37.965Z,10.10
2023-02-12T11:08:41.990Z,11.30
2023-02-12T11:13:56.343Z,14.00
2023-02-12T11:19:18.518Z,15.90
2023-02-12T11:24:36.171Z,8.50
2023-02-12T11:29:40.048Z,6.50
2023-02-12T11:34:43.193Z,8.80
2023-02-12T11:39:50.575Z,10.30
2023-02-12T11:44:59.373Z,8.50
2023-02-12T11:50:30.117Z,7.30
2023-02-12T11:55:41.468Z,10.60
2023-02-12T12:01:28.560Z,4.40
2023-02-12T12:20:21.330Z,9.40
2023-02-12T12:25:36.070Z,4.90
2023-02-12T12:30:55.760Z,4.50
2023-02-12T12:36:34.432Z,4.00
2023-02-12T12:42:21.542Z,13.50
2023-02-12T12:47:34.380Z,5.70
2023-02-12T12:53:00.145Z,4.70
2023-02-12T12:58:19.223Z,4.70
2023-02-12T13:03:47.143Z,4.60
2023-02-12T13:09:25.349Z,5.20
2023-02-12T13:14:49.220Z,8.50
2023-02-12T13:20:06.960Z,5.90
2023-02-12T13:25:37.410Z,8.20
2023-02-12T13:30:50.855Z,7.70
2023-02-12T13:36:00.741Z,5.10
2023-02-12T13:41:08.432Z,10.50
2023-02-12T13:46:29.636Z,8.90
2023-02-12T13:52:06.372Z,10.50
2023-02-12T13:57:16.412Z,11.00
2023-02-12T14:02:36.560Z,6.20
2023-02-12T14:07:48.570Z,13.30
2023-02-12T14:12:53.705Z,9.10
2023-02-12T14:18:21.181Z,13.10
2023-02-12T14:23:32.052Z,12.80
2023-02-12T14:29:04.657Z,12.70
2023-02-12T14:34:11.668Z,15.70
2023-02-12T14:39:20.620Z,12.20
2023-02-12T14:44:23.705Z,8.90
2023-02-12T14:49:52.416Z,13.00
2023-02-12T15:00:32.726Z,11.50
2023-02-12T15:05:59.893Z,11.60
2023-02-12T15:11:15.008Z,21.00
2023-02-12T15:16:46.468Z,17.10
2023-02-12T15:21:54.679Z,12.00
2023-02-12T15:27:01.265Z,15.90
2023-02-12T15:32:10.466Z,21.40
2023-02-12T15:37:23.670Z,17.60
2023-02-12T15:42:32.605Z,20.40
2023-02-12T15:47:35.827Z,15.90
2023-02-12T15:52:41.839Z,30.10
2023-02-12T15:58:01.083Z,24.70
2023-02-12T16:03:04.406Z,28.40
2023-02-12T16:08:16.405Z,20.00
2023-02-12T16:13:29.255Z,21.50
2023-02-12T16:18:32.661Z,19.70
2023-02-12T16:23:36.382Z,31.00
2023-02-12T16:28:39.895Z,21.90
2023-02-12T16:33:53.431Z,36.20
2023-02-12T16:39:05.453Z,27.00
2023-02-12T16:44:17.998Z,22.00
2023-02-12T16:49:26.653Z,24.70
2023-02-12T16:54:36.096Z,18.10
2023-02-12T16:59:43.467Z,24.30
2023-02-12T17:04:46.781Z,22.60
2023-02-12T17:09:50.539Z,14.20
2023-02-12T17:14:55.144Z,26.50
2023-02-12T17:19:58.469Z,29.30
2023-02-12T17:25:01.592Z,22.10
2023-02-12T17:30:07.539Z,22.80
2023-02-12T17:35:11.160Z,28.80
2023-02-12T17:40:14.936Z,20.10
2023-02-12T17:45:18.187Z,19.40
2023-02-12T17:50:21.615Z,28.00
2023-02-12T17:55:25.264Z,27.90
2023-02-12T18:00:30.157Z,28.40
2023-02-12T18:05:33.384Z,15.10
2023-02-12T18:10:46.233Z,21.20
2023-02-12T18:15:49.629Z,15.40
2023-02-12T18:20:52.754Z,17.70
2023-02-12T18:25:55.961Z,25.00
2023-02-12T18:31:01.057Z,23.50
2023-02-12T18:36:09.409Z,22.50
2023-02-12T18:41:17.249Z,35.00
2023-02-12T18:46:27.967Z,26.00
2023-02-12T18:51:34.111Z,16.20
2023-02-12T18:56:43.803Z,22.80
2023-02-12T19:01:48.387Z,21.10
2023-02-12T19:06:54.804Z,16.50
2023-02-12T19:11:59.760Z,28.70
2023-02-12T19:17:03.308Z,30.60
2023-02-12T19:22:06.675Z,33.50
2023-02-12T19:27:10.735Z,40.10
2023-02-12T19:32:14.115Z,33.60
2023-02-12T19:37:17.530Z,23.80
2023-02-12T19:42:20.866Z,24.60
2023-02-12T19:47:24.251Z,32.30
2023-02-12T19:52:27.676Z,18.20
2023-02-12T19:57:30.968Z,32.20
2023-02-12T20:02:34.340Z,26.30
2023-02-12T20:07:37.802Z,12.60
2023-02-12T20:12:41.526Z,31.90
2023-02-12T20:17:44.837Z,25.80
2023-02-12T20:22:47.948Z,17.90
2023-02-12T20:27:51.388Z,17.90
2023-02-12T20:32:54.861Z,27.70
2023-02-12T20:37:58.095Z,31.70
2023-02-12T20:43:01.632Z,17.10
2023-02-12T20:48:04.900Z,30.10
2023-02-12T20:53:08.215Z,31.00
2023-02-12T20:58:11.532Z,17.50
2023-02-12T21:03:14.651Z,26.40
2023-02-12T21:08:17.737Z,22.10
2023-02-12T21:13:20.941Z,21.00
2023-02-12T21:18:26.636Z,25.50
2023-02-12T21:23:30.425Z,15.60
2023-02-12T21:28:34.899Z,14.40
2023-02-12T21:33:40.632Z,24.90
2023-02-12T21:38:47.359Z,14.60
2023-02-12T21:43:54.200Z,15.20
2023-02-12T21:48:59.614Z,11.40
2023-02-12T21:54:07.821Z,18.50
2023-02-12T21:59:12.067Z,13.80
2023-02-12T22:04:16.677Z,17.20
2023-02-12T22:09:23.019Z,6.80
2023-02-12T22:14:26.179Z,11.00
2023-02-12T22:19:29.469Z,11.40
2023-02-12T22:24:32.789Z,10.10
2023-02-12T22:29:36.190Z,11.00
2023-02-12T22:34:39.419Z,19.20
2023-02-12T22:39:42.815Z,15.20
2023-02-12T22:44:45.920Z,8.60
2023-02-12T22:49:49.356Z,10.90
2023-02-12T22:54:52.754Z,15.40
2023-02-12T22:59:55.848Z,9.70
2023-02-12T23:04:59.060Z,16.20
2023-02-12T23:10:02.351Z,12.30
2023-02-12T23:15:06.602Z,10.20
2023-02-12T23:20:11.133Z,22.20
2023-02-12T23:25:14.359Z,14.50
2023-02-12T23:30:17.397Z,10.80
2023-02-12T23:35:20.483Z,11.00
2023-02-12T23:40:23.719Z,12.70
2023-02-12T23:45:28.375Z,9.90
2023-02-12T23:50:32.258Z,9.10
2023-02-12T23:55:38.039Z,11.60
